• Join FlightAware (Why Join?)
  • Login
  • US Flag 
08:41AM EDT


 

Airport Tracker/Info


-or-


 

Live Flight TrackerFlight Track Log ✈ AWI3766 ✈ 10-May-2013 ✈ KAGS - KDCA

Flight Track Log - Related Links

Times and Time Zones

All times are in EDT time to prevent confusion due to time zone crossing. See the AWI3766 flight status page for this flight to view local times or setup timezone preferences in your user account.

Time Position Orientation Groundspeed Altitude Reporting Facility
EDT Latitude Longitude Course Direction KTS MPH feet Rate Location/Type
07:33PM 33.5376 -81.7064 47° Northeast  Level FlightAware Approximate
07:34PM 33.5982 -81.6285 47° Northeast  Level FlightAware Approximate
07:35PM 33.6552 -81.5470 54° Northeast  Level FlightAware Approximate
07:35PM 33.5339 -81.6542 49° Northeast 301 346 10,300  Level Jacksonville Center
07:36PM 33.7071 -81.4605 54° Northeast  Level FlightAware Approximate
07:36PM 33.5958 -81.5686 49° Northeast 326 375 11,400  Level Jacksonville Center
07:37PM 33.7682 -81.3685 49° Northeast  Level FlightAware Approximate
07:37PM 33.6656 -81.4753 48° Northeast 359 413 13,400  Level Jacksonville Center
07:38PM 33.8326 -81.2795 49° Northeast  Level FlightAware Approximate
07:38PM 33.7375 -81.3792 48° Northeast 380 437 15,200  Level Jacksonville Center
07:39PM 33.8156 -81.2778 47° Northeast 394 453 16,500 1,260 Climbing Jacksonville Center
07:40PM 33.8894 -81.1739 49° Northeast 406 467 17,800 1,200 Climbing Jacksonville Center
07:41PM 33.9650 -81.0697 49° Northeast 411 473 18,900 1,080 Climbing Jacksonville Center
07:42PM 34.0469 -80.9628 47° Northeast 411 473 20,000 960 Climbing Jacksonville Center
07:43PM 34.1267 -80.8581 47° Northeast 417 480 20,900 900 Climbing Jacksonville Center
07:44PM 34.2061 -80.7458 49° Northeast 423 487 21,800 900 Climbing Jacksonville Center
07:45PM 34.2878 -80.6383 47° Northeast 423 487 22,700 780 Climbing Jacksonville Center
07:46PM 34.3692 -80.5203 50° Northeast 429 494 23,400 600 Climbing Jacksonville Center
07:47PM 34.4525 -80.4097 48° Northeast 434 499 23,900 540 Climbing Jacksonville Center
07:48PM 34.6208 -80.2103 44° Northeast 468 539 25,000 660 Climbing Washington Center
07:49PM 34.7167 -80.1047 42° Northeast 473 544 25,700 660 Climbing Washington Center
07:50PM 34.8039 -80.0058 43° Northeast 473 544 26,400 780 Climbing Washington Center
07:51PM 34.8997 -79.8994 42° Northeast 468 539 27,300 780 Climbing Washington Center
07:52PM 34.9953 -79.7906 43° Northeast 468 539 28,000 660 Climbing Washington Center
07:53PM 35.0928 -79.6839 42° Northeast 468 539 28,700 480 Climbing Washington Center
07:54PM 35.1906 -79.5744 42° Northeast 462 532 29,000 120 Climbing Washington Center
07:55PM 35.2861 -79.4622 44° Northeast 462 532 29,000  Level Washington Center
07:56PM 35.3961 -79.3428 41° Northeast 468 539 29,000  Level Washington Center
07:57PM 35.4850 -79.2372 44° Northeast 448 516 29,000  Level Washington Center
07:58PM 35.5628 -79.1464 44° Northeast 431 496 29,000  Level Washington Center
07:59PM 35.6514 -79.0481 42° Northeast 426 490 29,000  Level Washington Center
08:00PM 35.7400 -78.9417 44° Northeast 431 496 29,000  Level Washington Center
08:01PM 35.8369 -78.8306 43° Northeast 431 496 29,000  Level Washington Center
08:02PM 35.9333 -78.7344 39° Northeast 436 502 29,000 -240 Level Washington Center
08:03PM 36.0314 -78.6486 35° Northeast 436 502 28,600 -720 Descending Washington Center
08:04PM 36.1297 -78.5647 35° Northeast 431 496 27,600 -840 Descending Washington Center
08:05PM 36.2214 -78.4808 36° Northeast 418 481 27,000 -360 Descending Washington Center
08:06PM 36.3153 -78.3967 36° Northeast 413 475 27,000  Level Washington Center
08:07PM 36.4131 -78.3097 36° Northeast 419 482 27,000  Level Washington Center
08:08PM 36.5111 -78.2228 35° Northeast 424 488 27,000  Level Washington Center
08:09PM 36.6175 -78.1281 36° Northeast 441 507 27,000  Level Washington Center
08:10PM 36.7239 -78.0278 37° Northeast 463 533 27,000 -480 Level Washington Center
08:11PM 36.8364 -77.9300 35° Northeast 480 552 26,100 -960 Descending Washington Center
08:12PM 36.9425 -77.8319 36° Northeast 480 552 25,100 -1,020 Descending Washington Center
08:13PM 37.0403 -77.7411 37° Northeast 467 537 24,100 -1,020 Descending Washington Center
08:14PM 37.1378 -77.6553 35° Northeast 439 505 23,100 -1,020 Descending Washington Center
08:15PM 37.2350 -77.5667 36° Northeast 434 499 22,100 -600 Descending Washington Center
08:16PM 37.3303 -77.4803 36° Northeast 434 499 22,000 -60 Descending Washington Center
08:17PM 37.4236 -77.3936 36° Northeast 424 488 22,000  Level Washington Center
08:18PM 37.5228 -77.3147 32° Northeast 419 482 22,000  Level Washington Center
08:19PM 37.6314 -77.2936 North 399 459 22,000 -960 Level Washington Center
08:20PM 37.7444 -77.2700 North 394 453 20,200 -1,920 Descending Washington Center
08:21PM 37.8511 -77.2486 North 389 448 18,300 -1,920 Descending Washington Center
08:22PM 37.9536 -77.2244 11° North 389 448 16,400 -1,800 Descending Washington Center
08:23PM 38.0433 -77.2106 North 374 430 14,700 -1,920 Descending Washington Center
08:24PM 38.1417 -77.1917 North 363 418 12,700 -2,160 Descending Washington Center
08:25PM 38.2464 -77.1675 10° North 352 405 10,400 -1,380 Descending Washington Center
08:26PM 38.3258 -77.1533 North 338 389 10,000 -240 Descending Washington Center
08:27PM 38.4114 -77.1364 North 315 362 10,000  Level Washington Center
08:28PM 38.5056 -77.1144 10° North 309 356 10,000  Level Washington Center
08:29PM 38.5914 -77.0950 10° North 309 356 10,000 -540 Level Washington Center
08:30PM 38.6644 -77.0806 North 291 335 9,000 -1,260 Descending Washington Center
08:31PM 38.7333 -77.0661 North 263 303 7,600 -1,440 Descending Washington Center
08:32PM 38.7956 -77.0911 343° North 238 274 6,200 -840 Descending Washington Center
08:34PM 38.8500 -77.1500 320° Northwest 206 237 5,900 -840 Descending Potomac TRACON
08:35PM 38.8833 -77.1833 322° Northwest 183 211 4,500 -1,440 Descending Potomac TRACON
08:36PM 38.9333 -77.2333 322° Northwest 201 231 3,100 -780 Descending Potomac TRACON
08:37PM 38.9667 -77.1833 49° Northeast 213 245 3,000 -480 Descending Potomac TRACON
08:38PM 38.9333 -77.1333 131° Southeast 172 198 2,200 -900 Descending Potomac TRACON
08:39PM 38.9000 -77.0833 131° Southeast 176 203 1,300 -1,020 Descending Potomac TRACON